createdAt,value
2023-03-27T00:01:18.856Z,3.64
2023-03-27T00:03:49.883Z,3.66
2023-03-27T00:06:18.346Z,3.66
2023-03-27T00:08:46.976Z,3.69
2023-03-27T00:11:15.062Z,3.69
2023-03-27T00:13:49.398Z,3.66
2023-03-27T00:16:18.580Z,3.65
2023-03-27T00:18:45.900Z,3.63
2023-03-27T00:21:12.829Z,3.61
2023-03-27T00:23:39.408Z,3.59
2023-03-27T00:26:06.487Z,3.58
2023-03-27T00:28:33.013Z,3.56
2023-03-27T00:31:00.139Z,3.52
2023-03-27T00:33:27.264Z,3.51
2023-03-27T00:35:54.238Z,3.48
2023-03-27T00:38:21.094Z,3.46
2023-03-27T00:40:49.267Z,3.45
2023-03-27T00:43:26.455Z,3.46
2023-03-27T00:46:08.296Z,3.48
2023-03-27T00:48:37.546Z,3.50
2023-03-27T00:51:05.954Z,3.51
2023-03-27T00:53:33.493Z,3.51
2023-03-27T00:56:07.689Z,3.49
2023-03-27T00:58:42.519Z,3.49
2023-03-27T01:01:12.221Z,3.48
2023-03-27T01:03:41.912Z,3.49
2023-03-27T01:06:11.170Z,3.48
2023-03-27T01:08:38.464Z,3.43
2023-03-27T01:11:10.699Z,3.36
2023-03-27T01:14:11.362Z,3.25
2023-03-27T01:17:02.692Z,3.13
2023-03-27T01:19:56.606Z,3.08
2023-03-27T01:22:33.801Z,3.08
2023-03-27T01:25:35.742Z,3.12
2023-03-27T01:28:21.101Z,3.18
2023-03-27T01:30:56.952Z,3.21
2023-03-27T01:33:51.453Z,3.25
2023-03-27T01:36:32.761Z,3.26
2023-03-27T01:39:08.446Z,3.25
2023-03-27T01:41:49.857Z,3.23
2023-03-27T01:44:43.031Z,3.23
2023-03-27T01:47:32.386Z,3.24
2023-03-27T01:50:01.931Z,3.22
2023-03-27T01:52:33.554Z,3.19
2023-03-27T01:55:09.672Z,3.13
2023-03-27T01:57:54.206Z,3.06
2023-03-27T02:00:23.845Z,3.01
2023-03-27T02:03:19.087Z,3.03
2023-03-27T02:05:56.208Z,3.10
2023-03-27T02:08:35.034Z,3.12
2023-03-27T02:11:11.952Z,3.10
2023-03-27T02:13:45.156Z,3.07
2023-03-27T02:16:24.875Z,3.01
2023-03-27T02:18:59.283Z,2.94
2023-03-27T02:21:26.960Z,2.84
2023-03-27T02:23:53.815Z,2.77
2023-03-27T02:26:20.554Z,2.72
2023-03-27T02:29:00.834Z,2.66
2023-03-27T02:31:39.123Z,2.63
2023-03-27T02:34:27.435Z,2.59
2023-03-27T02:37:17.460Z,2.53
2023-03-27T02:40:15.997Z,2.48
2023-03-27T02:43:07.696Z,2.44
2023-03-27T02:45:54.507Z,2.35
2023-03-27T02:48:40.289Z,2.28
2023-03-27T02:51:25.418Z,2.22
2023-03-27T02:53:58.992Z,2.18
2023-03-27T02:56:32.051Z,2.16
2023-03-27T02:59:04.537Z,2.13
2023-03-27T03:01:37.986Z,2.14
2023-03-27T03:04:20.758Z,2.16
2023-03-27T03:07:06.451Z,2.20
2023-03-27T03:09:33.950Z,2.18
2023-03-27T03:12:08.039Z,2.23
2023-03-27T03:14:44.062Z,2.27
2023-03-27T03:17:15.281Z,2.29
2023-03-27T03:19:42.051Z,2.28
2023-03-27T03:22:09.271Z,2.24
2023-03-27T03:24:37.468Z,2.21
2023-03-27T03:27:04.534Z,2.12
2023-03-27T03:29:37.987Z,2.06
2023-03-27T03:32:20.334Z,1.98
2023-03-27T03:34:50.671Z,1.92
2023-03-27T03:37:17.525Z,1.85
2023-03-27T03:39:44.003Z,1.80
2023-03-27T03:42:22.610Z,1.76
2023-03-27T03:44:51.962Z,1.71
2023-03-27T03:47:20.551Z,1.69
2023-03-27T03:49:47.204Z,1.67
2023-03-27T03:52:13.987Z,1.64
2023-03-27T03:54:40.499Z,1.61
2023-03-27T03:57:08.180Z,1.56
2023-03-27T03:59:35.206Z,1.54
2023-03-27T04:02:30.280Z,1.51
2023-03-27T04:05:09.163Z,1.48
2023-03-27T04:07:39.905Z,1.43
2023-03-27T04:10:30.308Z,1.40
2023-03-27T04:12:59.386Z,1.35
2023-03-27T04:15:36.640Z,1.32
2023-03-27T04:18:11.998Z,1.30
2023-03-27T04:20:39.389Z,1.30
2023-03-27T04:23:09.768Z,1.30
2023-03-27T04:25:38.601Z,1.33
2023-03-27T04:28:05.975Z,1.33
2023-03-27T04:30:43.923Z,1.34
2023-03-27T04:33:19.086Z,1.35
2023-03-27T04:36:09.146Z,1.34
2023-03-27T04:38:47.958Z,1.30
2023-03-27T04:41:15.473Z,1.25
2023-03-27T04:43:42.180Z,1.20
2023-03-27T04:46:09.319Z,1.15
2023-03-27T04:48:38.497Z,1.11
2023-03-27T04:51:16.724Z,1.08
2023-03-27T04:53:43.286Z,1.15
2023-03-27T04:56:11.453Z,1.24
2023-03-27T04:58:41.186Z,1.29
2023-03-27T05:01:12.560Z,1.31
2023-03-27T05:04:11.635Z,1.32
2023-03-27T05:06:47.656Z,1.31
2023-03-27T05:09:18.104Z,1.31
2023-03-27T05:11:49.698Z,1.27
2023-03-27T05:14:20.486Z,1.24
2023-03-27T05:16:52.140Z,1.20
2023-03-27T05:19:20.408Z,1.16
2023-03-27T05:21:56.654Z,1.13
2023-03-27T05:24:23.260Z,1.13
2023-03-27T05:26:49.871Z,1.14
2023-03-27T05:29:16.703Z,1.16
2023-03-27T05:31:45.649Z,1.17
2023-03-27T05:34:45.902Z,1.15
2023-03-27T05:37:16.481Z,1.12
2023-03-27T05:40:09.525Z,1.08
2023-03-27T05:42:42.640Z,1.07
2023-03-27T05:45:09.669Z,1.05
2023-03-27T05:48:00.433Z,1.05
2023-03-27T05:50:29.428Z,1.03
2023-03-27T05:53:08.116Z,1.04
2023-03-27T05:55:38.968Z,1.07
2023-03-27T05:58:06.644Z,1.09
2023-03-27T06:00:34.284Z,1.13
2023-03-27T06:03:02.943Z,1.15
2023-03-27T06:05:48.987Z,1.29
2023-03-27T06:08:16.951Z,1.44
2023-03-27T06:10:46.488Z,1.50
2023-03-27T06:13:21.598Z,1.62
2023-03-27T06:15:58.850Z,1.73
2023-03-27T06:18:47.633Z,1.76
2023-03-27T06:21:16.817Z,1.86
2023-03-27T06:23:43.817Z,1.81
2023-03-27T06:26:12.269Z,1.84
2023-03-27T06:28:39.341Z,2.08
2023-03-27T06:31:08.540Z,2.45
2023-03-27T06:33:53.954Z,2.74
2023-03-27T06:36:39.639Z,3.08
2023-03-27T06:39:06.250Z,3.19
2023-03-27T06:41:33.778Z,3.11
2023-03-27T06:44:18.973Z,3.14
2023-03-27T06:47:04.129Z,3.21
2023-03-27T06:49:39.994Z,3.14
2023-03-27T06:52:14.983Z,3.16
2023-03-27T06:54:42.936Z,3.25
2023-03-27T06:57:09.872Z,3.44
2023-03-27T06:59:48.821Z,3.70
2023-03-27T07:02:20.158Z,3.92
2023-03-27T07:05:10.803Z,4.18
2023-03-27T07:07:41.465Z,4.31
2023-03-27T07:10:10.804Z,4.70
2023-03-27T07:12:38.464Z,5.42
2023-03-27T07:15:06.291Z,6.10
2023-03-27T07:17:47.623Z,6.37
2023-03-27T07:20:15.332Z,6.80
2023-03-27T07:22:45.437Z,6.51
2023-03-27T07:25:36.928Z,6.37
2023-03-27T07:28:09.789Z,6.71
2023-03-27T07:30:37.619Z,7.16
2023-03-27T07:33:05.836Z,7.39
2023-03-27T07:35:32.708Z,7.86
2023-03-27T07:38:19.269Z,8.08
2023-03-27T07:41:06.686Z,7.74
2023-03-27T07:43:51.779Z,7.66
2023-03-27T07:46:18.908Z,8.31
2023-03-27T07:48:45.995Z,8.41
2023-03-27T07:51:20.423Z,8.57
2023-03-27T07:53:49.797Z,8.66
2023-03-27T07:56:23.346Z,9.06
2023-03-27T07:59:08.216Z,9.00
2023-03-27T08:01:35.681Z,9.72
2023-03-27T08:04:02.853Z,10.26
2023-03-27T08:06:30.477Z,10.13
2023-03-27T08:08:57.163Z,9.93
2023-03-27T08:11:30.644Z,10.10
2023-03-27T08:13:58.900Z,10.77
2023-03-27T08:16:29.053Z,10.21
2023-03-27T08:19:18.720Z,10.23
2023-03-27T08:22:15.737Z,9.22
2023-03-27T08:25:10.357Z,9.71
2023-03-27T08:27:38.256Z,10.69
2023-03-27T08:30:06.203Z,11.23
2023-03-27T08:32:40.415Z,11.49
2023-03-27T08:35:11.918Z,11.48
2023-03-27T08:37:41.186Z,11.60
2023-03-27T08:40:33.975Z,11.92
2023-03-27T08:43:23.283Z,12.03
2023-03-27T08:46:00.544Z,12.15
2023-03-27T08:48:50.120Z,12.75
2023-03-27T08:51:24.921Z,12.94
2023-03-27T08:54:16.575Z,12.71
2023-03-27T08:56:43.470Z,12.99
2023-03-27T08:59:17.321Z,12.91
2023-03-27T09:01:56.509Z,11.88
2023-03-27T09:04:23.002Z,11.97
2023-03-27T09:07:13.049Z,12.39
2023-03-27T09:10:03.335Z,13.13
2023-03-27T09:12:55.134Z,13.11
2023-03-27T09:15:26.190Z,13.37
2023-03-27T09:18:30.337Z,13.38
2023-03-27T09:21:08.092Z,12.77
2023-03-27T09:23:45.394Z,12.11
2023-03-27T09:26:42.656Z,11.76
2023-03-27T09:29:39.349Z,10.26
2023-03-27T09:32:28.498Z,8.77
2023-03-27T09:35:00.779Z,8.01
2023-03-27T09:37:28.145Z,7.45
2023-03-27T09:39:55.969Z,6.90
2023-03-27T09:42:33.604Z,6.63
2023-03-27T09:45:04.269Z,6.66
2023-03-27T09:47:44.304Z,6.74
2023-03-27T09:50:46.936Z,6.90
2023-03-27T09:53:23.509Z,7.19
2023-03-27T09:56:07.254Z,8.19
2023-03-27T09:58:43.484Z,9.36
2023-03-27T10:01:16.404Z,10.35
2023-03-27T10:03:51.765Z,11.15
2023-03-27T10:06:31.047Z,11.26
2023-03-27T10:09:19.718Z,11.69
2023-03-27T10:11:49.409Z,12.00
2023-03-27T10:14:26.173Z,12.21
2023-03-27T10:16:54.339Z,12.55
2023-03-27T10:19:27.020Z,12.82
2023-03-27T10:21:56.387Z,12.88
2023-03-27T10:24:35.021Z,13.15
2023-03-27T10:27:12.110Z,13.42
2023-03-27T10:29:46.652Z,13.47
2023-03-27T10:32:15.453Z,13.89
2023-03-27T10:35:22.635Z,14.24
2023-03-27T10:38:16.046Z,14.05
2023-03-27T10:40:51.913Z,14.40
2023-03-27T10:43:42.169Z,13.58
2023-03-27T10:46:17.208Z,12.77
2023-03-27T10:49:21.897Z,11.32
2023-03-27T10:51:55.590Z,10.38
2023-03-27T10:54:43.882Z,9.95
2023-03-27T10:57:23.329Z,10.11
2023-03-27T11:00:18.269Z,11.19
2023-03-27T11:03:10.300Z,12.00
2023-03-27T11:05:44.521Z,12.32
2023-03-27T11:08:23.349Z,12.77
2023-03-27T11:10:52.026Z,12.82
2023-03-27T11:13:28.355Z,12.51
2023-03-27T11:16:12.116Z,11.86
2023-03-27T11:19:17.297Z,12.30
2023-03-27T11:22:17.674Z,13.42
2023-03-27T11:24:57.006Z,13.70
2023-03-27T11:27:30.821Z,13.94
2023-03-27T11:30:26.672Z,13.59
2023-03-27T11:33:38.659Z,12.51
2023-03-27T11:36:19.150Z,10.50
2023-03-27T11:39:18.567Z,9.32
2023-03-27T11:41:59.021Z,8.54
2023-03-27T11:44:30.229Z,8.15
2023-03-27T11:47:32.134Z,8.35
2023-03-27T11:50:28.497Z,8.87
2023-03-27T11:53:03.975Z,10.02
2023-03-27T11:56:45.980Z,11.32
2023-03-27T11:59:44.966Z,11.66
2023-03-27T12:02:35.055Z,11.65
2023-03-27T12:05:21.972Z,11.76
2023-03-27T12:08:09.556Z,11.72
2023-03-27T12:10:39.400Z,11.44
2023-03-27T12:13:42.039Z,11.15
2023-03-27T12:16:43.630Z,11.22
2023-03-27T12:19:52.468Z,11.27
2023-03-27T12:22:47.901Z,11.34
2023-03-27T12:25:52.201Z,10.38
2023-03-27T12:28:43.851Z,9.40
2023-03-27T12:31:46.816Z,9.31
2023-03-27T12:34:32.799Z,8.98
2023-03-27T12:37:00.848Z,9.05
2023-03-27T12:39:28.756Z,8.85
2023-03-27T12:42:13.072Z,9.17
2023-03-27T12:45:14.085Z,8.94
2023-03-27T12:48:06.368Z,8.90
2023-03-27T12:50:41.987Z,9.04
2023-03-27T12:53:27.772Z,9.26
2023-03-27T12:56:17.940Z,9.79
2023-03-27T12:58:51.809Z,9.81
2023-03-27T13:01:51.522Z,9.64
2023-03-27T13:05:01.397Z,9.67
2023-03-27T13:07:34.175Z,9.71
2023-03-27T13:10:07.582Z,9.77
2023-03-27T13:13:15.701Z,9.81
2023-03-27T13:16:19.841Z,9.90
2023-03-27T13:19:30.422Z,9.94
2023-03-27T13:22:37.036Z,9.96
2023-03-27T13:25:31.811Z,10.09
2023-03-27T13:28:19.780Z,10.23
2023-03-27T13:31:01.511Z,9.94
2023-03-27T13:34:07.393Z,8.83
2023-03-27T13:36:34.783Z,8.65
2023-03-27T13:39:06.317Z,8.80
2023-03-27T13:41:45.726Z,8.56
2023-03-27T13:44:30.900Z,8.48
2023-03-27T13:47:08.520Z,8.35
2023-03-27T13:49:49.859Z,8.20
2023-03-27T13:52:45.966Z,8.24
2023-03-27T13:55:34.711Z,8.38
2023-03-27T13:58:53.311Z,8.66
2023-03-27T14:01:34.152Z,8.86
2023-03-27T14:04:30.561Z,9.02
2023-03-27T14:07:25.365Z,9.06
2023-03-27T14:10:30.357Z,9.26
2023-03-27T14:13:23.031Z,9.21
2023-03-27T14:16:18.229Z,9.23
2023-03-27T14:19:27.789Z,9.24
2023-03-27T14:21:58.584Z,9.33
2023-03-27T14:24:40.020Z,9.66
2023-03-27T14:27:20.293Z,9.81
2023-03-27T14:29:49.522Z,9.93
2023-03-27T14:32:20.470Z,9.73
2023-03-27T14:34:54.213Z,9.65
2023-03-27T14:37:41.982Z,9.78
2023-03-27T14:40:42.128Z,9.40
2023-03-27T14:43:21.070Z,8.88
2023-03-27T14:45:55.703Z,8.74
2023-03-27T14:48:30.916Z,8.93
2023-03-27T14:51:04.238Z,9.01
2023-03-27T14:53:44.745Z,9.04
2023-03-27T14:56:38.005Z,8.96
2023-03-27T14:59:15.352Z,8.95
2023-03-27T15:01:51.135Z,8.83
2023-03-27T15:04:18.901Z,8.64
2023-03-27T15:06:49.930Z,8.40
2023-03-27T15:09:37.292Z,8.14
2023-03-27T15:12:23.484Z,8.07
2023-03-27T15:14:52.830Z,8.24
2023-03-27T15:17:20.064Z,8.35
2023-03-27T15:19:50.970Z,8.28
2023-03-27T15:22:22.900Z,8.18
2023-03-27T15:24:59.741Z,8.24
2023-03-27T15:27:38.932Z,8.30
2023-03-27T15:30:19.501Z,8.32
2023-03-27T15:32:52.173Z,8.15
2023-03-27T15:35:29.904Z,7.99
2023-03-27T15:37:57.158Z,7.94
2023-03-27T15:40:43.045Z,7.98
2023-03-27T15:43:12.385Z,7.97
2023-03-27T15:45:58.624Z,7.82
2023-03-27T15:48:37.900Z,7.84
2023-03-27T15:51:07.361Z,7.81
2023-03-27T15:53:38.332Z,7.83
2023-03-27T15:56:22.097Z,7.82
2023-03-27T15:58:53.183Z,7.77
2023-03-27T16:01:22.974Z,7.81
2023-03-27T16:03:51.478Z,7.90
2023-03-27T16:06:33.521Z,7.84
2023-03-27T16:09:05.261Z,7.84
2023-03-27T16:11:41.472Z,7.85
2023-03-27T16:14:26.470Z,7.84
2023-03-27T16:17:19.706Z,7.75
2023-03-27T16:20:07.866Z,7.67
2023-03-27T16:22:38.615Z,7.54
2023-03-27T16:28:04.669Z,7.39
2023-03-27T16:30:45.725Z,7.32
2023-03-27T16:33:42.632Z,7.29
2023-03-27T16:36:16.028Z,7.25
2023-03-27T16:38:43.850Z,7.16
2023-03-27T16:41:13.340Z,7.17
2023-03-27T16:43:40.357Z,7.06
2023-03-27T16:46:11.080Z,7.02
2023-03-27T16:48:37.616Z,6.98
2023-03-27T16:51:04.271Z,6.91
2023-03-27T16:53:32.053Z,6.86
2023-03-27T16:55:59.691Z,6.78
2023-03-27T16:58:27.057Z,6.69
2023-03-27T17:00:53.617Z,6.63
2023-03-27T17:03:20.114Z,6.62
2023-03-27T17:05:46.638Z,6.63
2023-03-27T17:08:20.908Z,6.56
2023-03-27T17:10:47.468Z,6.39
2023-03-27T17:13:14.011Z,6.36
2023-03-27T17:15:40.618Z,6.35
2023-03-27T17:18:07.261Z,6.21
2023-03-27T17:20:35.301Z,6.12
2023-03-27T17:23:01.791Z,6.03
2023-03-27T17:25:28.396Z,5.98
2023-03-27T17:27:54.945Z,5.93
2023-03-27T17:30:34.608Z,5.95
2023-03-27T17:33:05.227Z,5.92
2023-03-27T17:35:32.025Z,5.85
2023-03-27T17:37:58.687Z,5.83
2023-03-27T17:40:25.411Z,5.83
2023-03-27T17:42:51.879Z,5.81
2023-03-27T17:45:19.399Z,5.82
2023-03-27T17:47:46.067Z,5.76
2023-03-27T17:50:12.612Z,5.69
2023-03-27T17:52:39.046Z,5.68
2023-03-27T17:55:06.469Z,5.66
2023-03-27T17:57:32.952Z,5.65
2023-03-27T17:59:59.892Z,5.61
2023-03-27T18:02:26.401Z,5.62
2023-03-27T18:04:52.982Z,5.64
2023-03-27T18:07:20.368Z,5.62
2023-03-27T18:09:46.873Z,5.65
2023-03-27T18:12:14.247Z,5.64
2023-03-27T18:14:42.398Z,5.65
2023-03-27T18:17:09.403Z,5.74
2023-03-27T18:19:36.261Z,5.71
2023-03-27T18:22:03.595Z,5.51
2023-03-27T18:24:30.082Z,5.40
2023-03-27T18:26:56.720Z,5.33
2023-03-27T18:29:24.457Z,5.24
2023-03-27T18:31:51.093Z,5.20
2023-03-27T18:34:17.749Z,5.15
2023-03-27T18:36:50.605Z,5.08
2023-03-27T18:39:20.903Z,5.00
2023-03-27T18:41:47.397Z,4.92
2023-03-27T18:44:14.169Z,4.89
2023-03-27T18:46:40.781Z,4.83
2023-03-27T18:49:21.471Z,4.80
2023-03-27T18:51:51.110Z,4.75
2023-03-27T18:54:17.581Z,4.71
2023-03-27T18:56:44.352Z,4.66
2023-03-27T18:59:11.961Z,4.60
2023-03-27T19:01:38.561Z,4.55
2023-03-27T19:04:05.438Z,4.50
2023-03-27T19:06:32.885Z,4.45
2023-03-27T19:08:59.773Z,4.40
2023-03-27T19:11:26.294Z,4.37
2023-03-27T19:14:28.020Z,4.31
2023-03-27T19:17:22.342Z,4.25
2023-03-27T19:20:09.949Z,4.22
2023-03-27T19:22:55.384Z,4.21
2023-03-27T19:25:28.362Z,4.17
2023-03-27T19:27:59.754Z,4.17
2023-03-27T19:30:26.438Z,4.19
2023-03-27T19:32:55.671Z,4.10
2023-03-27T19:35:22.310Z,4.07
2023-03-27T19:37:48.764Z,3.99
2023-03-27T19:40:15.987Z,3.93
2023-03-27T19:42:42.575Z,3.87
2023-03-27T19:45:34.458Z,3.83
2023-03-27T19:48:06.560Z,3.78
2023-03-27T19:50:33.520Z,3.75
2023-03-27T19:53:35.608Z,3.72
2023-03-27T19:56:05.498Z,3.68
2023-03-27T19:58:41.251Z,3.66
2023-03-27T20:01:07.886Z,3.64
2023-03-27T20:04:00.951Z,3.61
2023-03-27T20:06:28.926Z,3.56
2023-03-27T20:08:59.979Z,3.54
2023-03-27T20:11:29.832Z,3.52
2023-03-27T20:13:57.292Z,3.47
2023-03-27T20:16:30.809Z,3.45
2023-03-27T20:19:06.348Z,3.42
2023-03-27T20:21:37.473Z,3.37
2023-03-27T20:24:09.638Z,3.35
2023-03-27T20:26:40.313Z,3.34
2023-03-27T20:29:19.418Z,3.32
2023-03-27T20:31:46.406Z,3.33
2023-03-27T20:34:13.334Z,3.33
2023-03-27T20:37:11.784Z,3.35
2023-03-27T20:39:53.698Z,3.35
2023-03-27T20:42:22.962Z,3.33
2023-03-27T20:44:55.193Z,3.26
2023-03-27T20:47:22.154Z,3.24
2023-03-27T20:49:48.695Z,3.25
2023-03-27T20:52:17.692Z,3.27
2023-03-27T20:54:44.539Z,3.25
2023-03-27T20:57:12.348Z,3.24
2023-03-27T20:59:48.243Z,3.22
2023-03-27T21:02:19.499Z,3.18
2023-03-27T21:04:47.490Z,3.12
2023-03-27T21:07:15.721Z,3.07
2023-03-27T21:09:46.086Z,3.01
2023-03-27T21:12:12.725Z,2.95
2023-03-27T21:14:39.256Z,2.90
2023-03-27T21:17:05.925Z,2.87
2023-03-27T21:19:32.518Z,2.84
2023-03-27T21:22:05.789Z,2.80
2023-03-27T21:24:32.383Z,2.78
2023-03-27T21:27:00.041Z,2.72
2023-03-27T21:29:26.623Z,2.68
2023-03-27T21:31:53.316Z,2.63
2023-03-27T21:34:19.902Z,2.51
2023-03-27T21:36:46.356Z,2.48
2023-03-27T21:39:12.892Z,2.45
2023-03-27T21:41:39.437Z,2.42
2023-03-27T21:44:06.229Z,2.41
2023-03-27T21:46:32.806Z,2.36
2023-03-27T21:48:59.362Z,2.36
2023-03-27T21:51:26.443Z,2.32
2023-03-27T21:53:53.224Z,2.28
2023-03-27T21:56:19.807Z,2.25
2023-03-27T21:58:46.305Z,2.24
2023-03-27T22:01:12.791Z,2.17
2023-03-27T22:03:39.253Z,2.11
2023-03-27T22:06:12.484Z,2.11
2023-03-27T22:08:40.992Z,2.09
2023-03-27T22:11:08.095Z,2.07
2023-03-27T22:13:36.236Z,2.03
2023-03-27T22:16:15.518Z,1.96
2023-03-27T22:18:43.532Z,1.94
2023-03-27T22:21:25.543Z,1.91
2023-03-27T22:23:53.640Z,1.87
2023-03-27T22:26:26.883Z,1.86
2023-03-27T22:28:53.671Z,1.87
2023-03-27T22:31:26.161Z,1.84
2023-03-27T22:33:53.130Z,1.80
2023-03-27T22:36:20.059Z,1.76
2023-03-27T22:38:46.818Z,1.75
2023-03-27T22:41:14.229Z,1.75
2023-03-27T22:43:41.756Z,1.73
2023-03-27T22:46:15.917Z,1.68
2023-03-27T22:48:42.870Z,1.64
2023-03-27T22:51:11.272Z,1.60
2023-03-27T22:53:38.568Z,1.58
2023-03-27T22:56:08.735Z,1.58
2023-03-27T22:58:35.587Z,1.55
2023-03-27T23:01:04.309Z,1.53
2023-03-27T23:03:30.986Z,1.51
2023-03-27T23:05:57.970Z,1.50
2023-03-27T23:08:27.271Z,1.48
2023-03-27T23:11:04.605Z,1.50
2023-03-27T23:13:33.443Z,1.47
2023-03-27T23:16:00.461Z,1.46
2023-03-27T23:18:27.273Z,1.43
2023-03-27T23:20:58.885Z,1.43
2023-03-27T23:23:27.419Z,1.41
2023-03-27T23:25:55.337Z,1.40
2023-03-27T23:28:21.872Z,1.35
2023-03-27T23:30:56.595Z,1.32
2023-03-27T23:33:25.109Z,1.28
2023-03-27T23:35:53.339Z,1.22
2023-03-27T23:38:20.235Z,1.20
2023-03-27T23:40:46.854Z,1.16
2023-03-27T23:43:17.422Z,1.14
2023-03-27T23:45:45.028Z,1.10
2023-03-27T23:48:11.528Z,1.06
2023-03-27T23:50:37.932Z,1.05
2023-03-27T23:53:04.396Z,1.00
2023-03-27T23:55:31.010Z,0.97
2023-03-27T23:57:57.605Z,0.91
